createdAt,value
2023-02-04T00:01:58.498Z,7.68
2023-02-04T00:07:00.151Z,7.72
2023-02-04T00:12:01.797Z,7.78
2023-02-04T00:17:03.468Z,7.67
2023-02-04T00:22:05.256Z,7.70
2023-02-04T00:27:07.554Z,7.74
2023-02-04T00:32:09.344Z,7.67
2023-02-04T00:37:11.088Z,7.69
2023-02-04T00:42:13.062Z,7.73
2023-02-04T00:47:14.735Z,7.70
2023-02-04T00:52:16.334Z,7.71
2023-02-04T00:57:19.777Z,7.74
2023-02-04T01:02:21.418Z,7.76
2023-02-04T01:07:23.327Z,7.72
2023-02-04T01:12:27.300Z,7.71
2023-02-04T01:17:29.189Z,7.68
2023-02-04T01:22:30.889Z,7.65
2023-02-04T01:27:32.597Z,7.64
2023-02-04T01:32:34.431Z,7.65
2023-02-04T01:37:36.152Z,7.64
2023-02-04T01:42:38.729Z,7.58
2023-02-04T01:47:40.671Z,7.62
2023-02-04T01:52:44.245Z,7.58
2023-02-04T01:57:46.594Z,7.61
2023-02-04T02:02:51.151Z,7.67
2023-02-04T02:07:57.197Z,7.68
2023-02-04T02:12:59.408Z,7.70
2023-02-04T02:18:01.278Z,7.71
2023-02-04T02:23:18.045Z,7.70
2023-02-04T02:28:22.142Z,7.71
2023-02-04T02:33:25.450Z,7.72
2023-02-04T02:38:27.186Z,7.72
2023-02-04T02:43:30.170Z,7.71
2023-02-04T02:48:32.670Z,7.76
2023-02-04T02:53:34.626Z,7.76
2023-02-04T02:58:36.538Z,7.77
2023-02-04T03:03:56.605Z,7.78
2023-02-04T03:08:58.539Z,7.81
2023-02-04T03:14:03.789Z,7.81
2023-02-04T03:19:07.608Z,7.80
2023-02-04T03:24:09.683Z,7.77
2023-02-04T03:29:12.715Z,7.82
2023-02-04T03:34:14.426Z,7.81
2023-02-04T03:39:16.040Z,7.81
2023-02-04T03:44:18.764Z,7.84
2023-02-04T03:49:20.335Z,7.84
2023-02-04T03:54:21.930Z,7.80
2023-02-04T03:59:40.759Z,7.76
2023-02-04T04:04:42.457Z,7.69
2023-02-04T04:09:44.102Z,7.72
2023-02-04T04:14:45.776Z,7.75
2023-02-04T04:19:49.457Z,7.76
2023-02-04T04:24:51.140Z,7.77
2023-02-04T04:29:52.838Z,7.68
2023-02-04T04:34:55.592Z,7.70
2023-02-04T04:39:57.262Z,7.71
2023-02-04T04:44:58.880Z,7.67
2023-02-04T04:50:00.511Z,7.66
2023-02-04T04:55:02.128Z,7.60
2023-02-04T05:00:05.443Z,7.48
2023-02-04T05:05:07.226Z,7.47
2023-02-04T05:10:09.511Z,7.46
2023-02-04T05:15:11.399Z,7.45
2023-02-04T05:20:13.066Z,7.45
2023-02-04T05:25:16.721Z,7.45
2023-02-04T05:30:18.443Z,7.44
2023-02-04T05:35:20.256Z,7.44
2023-02-04T05:40:21.993Z,7.44
2023-02-04T05:45:23.718Z,7.42
2023-02-04T05:50:25.523Z,7.42
2023-02-04T05:55:42.956Z,7.41
2023-02-04T06:00:44.595Z,7.43
2023-02-04T06:05:46.229Z,7.46
2023-02-04T06:10:47.877Z,7.47
2023-02-04T06:15:49.545Z,7.48
2023-02-04T06:20:51.180Z,7.49
2023-02-04T06:25:52.854Z,7.44
2023-02-04T06:30:54.600Z,7.43
2023-02-04T06:35:56.350Z,7.44
2023-02-04T06:40:58.034Z,7.43
2023-02-04T06:45:59.666Z,7.44
2023-02-04T06:51:01.369Z,7.41
2023-02-04T06:56:03.141Z,7.44
2023-02-04T07:01:06.345Z,7.44
2023-02-04T07:06:08.185Z,7.45
2023-02-04T07:11:10.007Z,7.34
2023-02-04T07:16:11.718Z,7.38
2023-02-04T07:21:13.356Z,7.33
2023-02-04T07:26:14.951Z,7.35
2023-02-04T07:31:16.753Z,7.38
2023-02-04T07:36:18.479Z,7.43
2023-02-04T07:41:21.108Z,7.48
2023-02-04T07:46:22.754Z,7.53
2023-02-04T07:51:24.415Z,7.57
2023-02-04T07:56:26.070Z,7.56
2023-02-04T08:01:27.730Z,7.60
2023-02-04T08:06:29.412Z,7.61
2023-02-04T08:11:31.276Z,7.67
2023-02-04T08:16:32.878Z,7.72
2023-02-04T08:21:34.525Z,7.64
2023-02-04T08:26:36.305Z,7.50
2023-02-04T08:31:40.794Z,7.58
2023-02-04T08:36:44.753Z,7.57
2023-02-04T08:41:46.417Z,7.58
2023-02-04T08:46:48.143Z,7.56
2023-02-04T08:51:49.819Z,7.59
2023-02-04T08:56:51.502Z,7.59
2023-02-04T09:01:53.292Z,7.65
2023-02-04T09:06:55.111Z,7.73
2023-02-04T09:11:56.789Z,7.71
2023-02-04T09:16:58.462Z,7.79
2023-02-04T09:22:00.212Z,7.79
2023-02-04T09:27:01.821Z,7.81
2023-02-04T09:32:03.577Z,7.74
2023-02-04T09:37:05.254Z,7.82
2023-02-04T09:42:10.521Z,7.91
2023-02-04T09:47:15.495Z,7.87
2023-02-04T09:52:18.496Z,7.86
2023-02-04T09:57:21.301Z,7.94
2023-02-04T10:02:26.823Z,7.87
2023-02-04T10:07:29.925Z,7.90
2023-02-04T10:12:32.328Z,7.96
2023-02-04T10:17:33.969Z,8.00
2023-02-04T10:22:36.833Z,7.97
2023-02-04T10:27:48.476Z,8.06
2023-02-04T10:32:50.686Z,8.12
2023-02-04T10:38:06.891Z,8.05
2023-02-04T10:43:17.079Z,8.07
2023-02-04T10:48:19.949Z,8.05
2023-02-04T10:53:41.812Z,8.07
2023-02-04T10:58:43.966Z,8.17
2023-02-04T11:03:48.167Z,8.07
2023-02-04T11:08:53.522Z,8.04
2023-02-04T11:13:55.757Z,8.04
2023-02-04T11:19:06.332Z,8.01
2023-02-04T11:24:16.570Z,7.91
2023-02-04T11:29:34.867Z,8.07
2023-02-04T11:34:49.053Z,8.16
2023-02-04T11:39:51.016Z,8.32
2023-02-04T11:45:13.392Z,8.24
2023-02-04T11:50:25.005Z,8.36
2023-02-04T11:55:28.738Z,8.49
2023-02-04T12:00:32.770Z,8.51
2023-02-04T12:05:45.019Z,8.50
2023-02-04T12:10:51.765Z,8.53
2023-02-04T12:16:05.370Z,8.50
2023-02-04T12:21:14.490Z,8.49
2023-02-04T12:26:16.150Z,8.45
2023-02-04T12:31:25.933Z,8.42
2023-02-04T12:36:29.692Z,8.49
2023-02-04T12:41:31.402Z,8.39
2023-02-04T12:46:33.392Z,8.38
2023-02-04T12:51:35.050Z,8.36
2023-02-04T12:56:36.689Z,8.35
2023-02-04T13:01:38.347Z,8.46
2023-02-04T13:06:40.038Z,8.50
2023-02-04T13:11:41.812Z,8.52
2023-02-04T13:16:43.425Z,8.55
2023-02-04T13:21:45.152Z,8.57
2023-02-04T13:26:46.761Z,8.65
2023-02-04T13:31:49.569Z,8.59
2023-02-04T13:36:51.410Z,8.56
2023-02-04T13:41:53.178Z,8.61
2023-02-04T13:46:54.814Z,8.50
2023-02-04T13:51:56.427Z,8.52
2023-02-04T13:56:58.014Z,8.49
2023-02-04T14:01:59.817Z,8.63
2023-02-04T14:07:01.504Z,8.69
2023-02-04T14:12:03.170Z,8.49
2023-02-04T14:17:04.887Z,8.43
2023-02-04T14:22:07.760Z,8.50
2023-02-04T14:27:10.530Z,8.37
2023-02-04T14:32:12.170Z,8.43
2023-02-04T14:37:13.945Z,8.41
2023-02-04T14:42:15.552Z,8.52
2023-02-04T14:47:17.116Z,8.47
2023-02-04T14:52:18.756Z,8.44
2023-02-04T14:57:21.586Z,8.54
2023-02-04T15:02:24.728Z,8.65
2023-02-04T15:07:26.644Z,8.50
2023-02-04T15:12:28.248Z,8.63
2023-02-04T15:17:30.080Z,8.63
2023-02-04T15:22:31.902Z,8.43
2023-02-04T15:27:33.717Z,8.56
2023-02-04T15:32:35.522Z,8.52
2023-02-04T15:37:37.114Z,8.58
2023-02-04T15:42:38.685Z,8.53
2023-02-04T15:47:40.285Z,8.64
2023-02-04T15:52:42.036Z,8.52
2023-02-04T15:57:43.607Z,8.58
2023-02-04T16:02:46.047Z,8.52
2023-02-04T16:07:48.101Z,8.55
2023-02-04T16:12:51.315Z,8.55
2023-02-04T16:17:55.516Z,8.45
2023-02-04T16:22:57.178Z,8.34
2023-02-04T16:27:58.780Z,8.31
2023-02-04T16:33:00.403Z,8.40
2023-02-04T16:38:01.973Z,8.34
2023-02-04T16:43:05.020Z,8.33
2023-02-04T16:48:06.619Z,8.48
2023-02-04T16:53:10.562Z,8.33
2023-02-04T16:58:13.071Z,8.33
2023-02-04T17:03:14.995Z,8.29
2023-02-04T17:08:17.441Z,8.47
2023-02-04T17:13:19.836Z,8.47
2023-02-04T17:18:21.523Z,8.54
2023-02-04T17:23:23.296Z,8.48
2023-02-04T17:28:26.197Z,8.32
2023-02-04T17:33:28.939Z,8.31
2023-02-04T17:38:31.644Z,8.35
2023-02-04T17:43:34.557Z,8.33
2023-02-04T17:48:36.611Z,8.35
2023-02-04T17:53:40.513Z,8.35
2023-02-04T17:58:42.770Z,8.38
2023-02-04T18:03:46.460Z,8.26
2023-02-04T18:08:49.996Z,8.13
2023-02-04T18:13:52.836Z,8.12
2023-02-04T18:18:57.804Z,8.21
2023-02-04T18:24:07.078Z,8.17
2023-02-04T18:29:36.346Z,8.02
2023-02-04T18:34:44.954Z,8.08
2023-02-04T18:39:46.710Z,8.18
2023-02-04T18:44:48.845Z,8.23
2023-02-04T18:49:50.532Z,8.18
2023-02-04T18:54:54.531Z,8.26
2023-02-04T19:00:08.673Z,8.29
2023-02-04T19:05:32.094Z,8.30
2023-02-04T19:10:37.380Z,8.32
2023-02-04T19:15:39.774Z,8.26
2023-02-04T19:20:41.562Z,8.29
2023-02-04T19:25:48.442Z,8.34
2023-02-04T19:30:50.950Z,8.20
2023-02-04T19:35:52.815Z,8.23
2023-02-04T19:40:54.617Z,8.07
2023-02-04T19:45:56.291Z,7.94
2023-02-04T19:50:58.700Z,7.83
2023-02-04T19:56:00.355Z,7.72
2023-02-04T20:01:04.937Z,7.65
2023-02-04T20:06:09.407Z,7.74
2023-02-04T20:11:29.744Z,7.73
2023-02-04T20:16:49.896Z,7.87
2023-02-04T20:22:17.326Z,8.00
2023-02-04T20:27:25.530Z,8.09
2023-02-04T20:32:30.063Z,8.01
2023-02-04T20:37:31.753Z,7.86
2023-02-04T20:42:40.778Z,7.77
2023-02-04T20:47:42.452Z,7.68
2023-02-04T20:52:45.558Z,7.70
2023-02-04T20:57:48.179Z,7.60
2023-02-04T21:02:49.834Z,7.74
2023-02-04T21:07:57.828Z,7.79
2023-02-04T21:13:01.356Z,7.72
2023-02-04T21:18:03.128Z,7.83
2023-02-04T21:23:05.212Z,7.88
2023-02-04T21:28:15.318Z,7.80
2023-02-04T21:33:17.308Z,7.81
2023-02-04T21:38:19.036Z,7.90
2023-02-04T21:43:20.697Z,7.89
2023-02-04T21:48:23.243Z,7.90
2023-02-04T21:53:25.019Z,7.95
2023-02-04T21:58:26.847Z,7.88
2023-02-04T22:03:28.604Z,7.92
2023-02-04T22:08:30.294Z,7.95
2023-02-04T22:13:31.876Z,8.01
2023-02-04T22:18:33.550Z,7.99
2023-02-04T22:23:35.157Z,8.03
2023-02-04T22:28:36.789Z,8.06
2023-02-04T22:33:38.452Z,8.01
2023-02-04T22:38:40.339Z,7.88
2023-02-04T22:43:42.041Z,7.79
2023-02-04T22:48:43.679Z,7.86
2023-02-04T22:53:45.295Z,7.75
2023-02-04T22:58:46.972Z,7.73
2023-02-04T23:03:49.239Z,7.61
2023-02-04T23:08:53.276Z,7.68
2023-02-04T23:13:55.822Z,7.76
2023-02-04T23:18:57.649Z,7.72
2023-02-04T23:24:00.622Z,7.72
2023-02-04T23:29:02.847Z,7.78
2023-02-04T23:34:04.503Z,7.62
2023-02-04T23:39:06.239Z,7.67
2023-02-04T23:44:07.863Z,7.73
2023-02-04T23:49:10.007Z,7.69
2023-02-04T23:54:12.088Z,7.68
2023-02-04T23:59:13.739Z,7.54
